Time;durP1;ratioP1;P1;durP2;ratioP2;P2;SDS_P1;SDS_P2;PMS_P1;PMS_P2;Temp;Humidity;BMP_temperature;BMP_pressure;BME280_temperature;BME280_humidity;BME280_pressure;Samples;Min_cycle;Max_cycle;Signal;HPM_P1;HPM_P2
2022/08/21 00:00:40;;;;;;;2.50;2.17;;;16.70;99.90;;;;;;5021936;28;20051;-72
2022/08/21 00:03:12;;;;;;;3.72;2.53;;;16.70;99.90;;;;;;5023875;28;20285;-72
2022/08/21 00:05:47;;;;;;;3.25;2.58;;;16.70;99.90;;;;;;5022252;28;20055;-72
2022/08/21 00:08:20;;;;;;;3.72;2.53;;;16.70;99.90;;;;;;5022413;28;20037;-72
2022/08/21 00:10:52;;;;;;;4.15;2.67;;;16.70;99.90;;;;;;5023584;28;20037;-72
2022/08/21 00:13:23;;;;;;;2.53;2.20;;;16.60;99.90;;;;;;5021588;28;20144;-72
2022/08/21 00:15:55;;;;;;;3.33;2.45;;;16.60;99.90;;;;;;5024064;28;20553;-72
2022/08/21 00:18:27;;;;;;;2.75;2.55;;;16.60;99.90;;;;;;5024106;28;20534;-72
2022/08/21 00:20:59;;;;;;;3.13;2.60;;;16.60;99.90;;;;;;5011697;28;20061;-72
2022/08/21 00:23:33;;;;;;;2.63;2.20;;;16.60;99.90;;;;;;5006651;28;20063;-72
2022/08/21 00:26:05;;;;;;;2.70;2.40;;;16.60;99.90;;;;;;5035052;28;20041;-72
2022/08/21 00:28:37;;;;;;;4.53;2.47;;;16.60;99.90;;;;;;5041339;28;20405;-72
2022/08/21 00:31:09;;;;;;;2.90;2.65;;;16.60;99.90;;;;;;5025054;28;20125;-72
2022/08/21 00:33:41;;;;;;;3.80;2.63;;;16.60;99.90;;;;;;5023291;28;20045;-72
2022/08/21 00:36:13;;;;;;;3.42;2.72;;;16.50;99.90;;;;;;5040236;28;20045;-73
2022/08/21 00:38:45;;;;;;;2.95;2.70;;;16.50;99.90;;;;;;5023092;28;20056;-72
2022/08/21 00:41:16;;;;;;;2.85;2.60;;;16.50;99.90;;;;;;5042256;28;20049;-73
2022/08/21 00:43:50;;;;;;;4.38;2.42;;;16.50;99.90;;;;;;5031047;28;20053;-72
2022/08/21 00:46:17;;;;;;;3.28;2.25;;;16.50;99.90;;;;;;5021586;28;20057;-72
2022/08/21 00:48:49;;;;;;;3.95;2.63;;;16.40;99.90;;;;;;5038968;28;20044;-72
2022/08/21 00:51:28;;;;;;;2.78;2.20;;;16.40;99.90;;;;;;5022472;28;20234;-72
2022/08/21 00:54:01;;;;;;;3.80;2.65;;;16.40;99.90;;;;;;5020590;28;20048;-72
2022/08/21 00:56:33;;;;;;;;;;;16.40;99.90;;;;;;5040740;28;20080;-72
2022/08/21 00:59:05;;;;;;;;;;;16.40;99.90;;;;;;5037418;28;19927;-72
2022/08/21 01:01:37;;;;;;;;;;;16.30;99.90;;;;;;5021408;28;19947;-72
2022/08/21 01:04:03;;;;;;;;;;;16.30;99.90;;;;;;5024719;28;20382;-73
2022/08/21 01:06:35;;;;;;;;;;;16.30;99.90;;;;;;5019061;28;19971;-72
2022/08/21 01:09:07;;;;;;;;;;;16.30;99.90;;;;;;5025827;28;19968;-73
2022/08/21 01:11:39;;;;;;;;;;;16.30;99.90;;;;;;5004772;28;19925;-73
2022/08/21 01:14:12;;;;;;;;;;;16.30;99.90;;;;;;5023793;28;19929;-73
2022/08/21 01:16:45;;;;;;;;;;;16.30;99.90;;;;;;5045572;28;19928;-73
2022/08/21 01:19:17;;;;;;;;;;;16.30;99.90;;;;;;5044907;28;20298;-73
2022/08/21 01:21:49;;;;;;;;;;;16.30;99.90;;;;;;5026198;28;19927;-73
2022/08/21 01:24:21;;;;;;;;;;;16.30;99.90;;;;;;5044808;28;19935;-72
2022/08/21 01:26:54;;;;;;;;;;;16.30;99.90;;;;;;5041954;28;19970;-73
2022/08/21 01:29:31;;;;;;;;;;;16.30;99.90;;;;;;5030771;28;19921;-73
2022/08/21 01:32:05;;;;;;;;;;;16.30;99.90;;;;;;5010939;28;20322;-72
2022/08/21 01:34:39;;;;;;;;;;;16.30;99.90;;;;;;5044164;28;19921;-72
2022/08/21 01:37:11;;;;;;;;;;;16.30;99.90;;;;;;5044054;28;19936;-72
2022/08/21 01:39:43;;;;;;;;;;;16.30;99.90;;;;;;5024928;28;19921;-72
2022/08/21 01:42:14;;;;;;;;;;;16.30;99.90;;;;;;5027525;28;19921;-72
2022/08/21 01:44:46;;;;;;;;;;;16.30;99.90;;;;;;5002691;28;19928;-72
2022/08/21 01:47:18;;;;;;;;;;;16.30;99.90;;;;;;5020032;28;20398;-72
2022/08/21 01:49:49;;;;;;;;;;;16.20;99.90;;;;;;5021900;28;20294;-72
2022/08/21 01:52:21;;;;;;;;;;;16.20;99.90;;;;;;5029873;28;19924;-73
2022/08/21 01:54:52;;;;;;;;;;;16.20;99.90;;;;;;5027785;28;19927;-72
2022/08/21 01:57:24;;;;;;;;;;;16.20;99.90;;;;;;5025150;28;20280;-73
2022/08/21 01:59:56;;;;;;;;;;;16.20;99.90;;;;;;5042413;28;19927;-72
2022/08/21 02:02:22;;;;;;;;;;;16.20;99.90;;;;;;5026452;28;20020;-72
2022/08/21 02:04:54;;;;;;;;;;;16.20;99.90;;;;;;5026458;28;20306;-73
2022/08/21 02:07:25;;;;;;;;;;;16.20;99.90;;;;;;5040555;28;19927;-73
2022/08/21 02:09:57;;;;;;;;;;;16.20;99.90;;;;;;5027134;28;20395;-72
2022/08/21 02:12:29;;;;;;;;;;;16.20;99.90;;;;;;5024638;28;20022;-73
2022/08/21 02:15:00;;;;;;;;;;;16.20;99.90;;;;;;5021381;28;19927;-73
2022/08/21 02:17:39;;;;;;;;;;;16.10;99.90;;;;;;5024197;28;19921;-73
2022/08/21 02:20:15;;;;;;;;;;;16.10;99.90;;;;;;5026483;28;19925;-72
2022/08/21 02:22:46;;;;;;;;;;;16.10;99.90;;;;;;5022019;28;19957;-73
2022/08/21 02:25:19;;;;;;;;;;;16.10;99.90;;;;;;5020002;28;19937;-72
2022/08/21 02:27:51;;;;;;;;;;;16.10;99.90;;;;;;5011011;28;19921;-73
2022/08/21 02:30:24;;;;;;;;;;;16.10;99.90;;;;;;5009819;28;19921;-73
2022/08/21 02:32:56;;;;;;;;;;;16.10;99.90;;;;;;5024364;28;19927;-73
2022/08/21 02:35:28;;;;;;;;;;;16.00;99.90;;;;;;5038526;28;20291;-73
2022/08/21 02:38:01;;;;;;;;;;;16.00;99.90;;;;;;5023077;28;19921;-72
2022/08/21 02:40:34;;;;;;;;;;;16.00;99.90;;;;;;5042578;28;20430;-73
2022/08/21 02:43:06;;;;;;;;;;;15.90;99.90;;;;;;5023554;28;19921;-73
2022/08/21 02:45:40;;;;;;;;;;;15.90;99.90;;;;;;5038908;28;19925;-73
2022/08/21 02:48:14;;;;;;;;;;;15.90;99.90;;;;;;5042266;28;19924;-72
2022/08/21 02:50:47;;;;;;;;;;;15.80;99.90;;;;;;5023194;28;19921;-72
2022/08/21 02:53:19;;;;;;;;;;;15.80;99.90;;;;;;5001560;28;19925;-73
2022/08/21 02:55:51;;;;;;;;;;;15.80;99.90;;;;;;5024392;28;19979;-73
2022/08/21 02:58:20;;;;;;;;;;;15.80;99.90;;;;;;5009440;28;19921;-72
2022/08/21 03:00:52;;;;;;;;;;;15.70;99.90;;;;;;5025978;28;19925;-73
2022/08/21 03:03:25;;;;;;;;;;;15.70;99.90;;;;;;5013027;28;20259;-73
2022/08/21 03:05:56;;;;;;;;;;;15.70;99.90;;;;;;5023544;28;19931;-73
2022/08/21 03:08:28;;;;;;;;;;;15.60;99.90;;;;;;5012284;28;19928;-73
2022/08/21 03:10:54;;;;;;;;;;;15.60;99.90;;;;;;5045789;28;19928;-72
2022/08/21 03:13:21;;;;;;;;;;;15.60;99.90;;;;;;5041133;28;20386;-72
2022/08/21 03:15:53;;;;;;;;;;;15.60;99.90;;;;;;5053528;28;19943;-72
2022/08/21 03:18:24;;;;;;;;;;;15.60;99.90;;;;;;5045402;28;19921;-72
2022/08/21 03:20:56;;;;;;;;;;;15.60;99.90;;;;;;5087893;23;19924;-70
2022/08/21 03:23:30;;;;;;;;;;;15.50;99.90;;;;;;5040471;28;19928;-71
2022/08/21 03:26:02;;;;;;;;;;;15.50;99.90;;;;;;5051153;28;19921;-71
2022/08/21 03:28:33;;;;;;;;;;;15.50;99.90;;;;;;5035040;28;19971;-71
2022/08/21 03:31:05;;;;;;;;;;;15.40;99.90;;;;;;5050464;28;19936;-72
2022/08/21 03:33:37;;;;;;;;;;;15.40;99.90;;;;;;5031777;28;19931;-72
2022/08/21 03:36:09;;;;;;;;;;;15.40;99.90;;;;;;5033590;28;19920;-72
2022/08/21 03:38:37;;;;;;;;;;;15.30;99.90;;;;;;5051749;28;19920;-72
2022/08/21 03:41:04;;;;;;;;;;;15.30;99.90;;;;;;5051619;28;19925;-72
2022/08/21 03:43:36;;;;;;;;;;;15.30;99.90;;;;;;5033916;28;20138;-72
2022/08/21 03:46:07;;;;;;;;;;;15.30;99.90;;;;;;5030704;28;19924;-72
2022/08/21 03:48:39;;;;;;;;;;;15.30;99.90;;;;;;5033885;28;19921;-72
2022/08/21 03:51:12;;;;;;;;;;;15.30;99.90;;;;;;5034436;28;20271;-71
2022/08/21 03:53:44;;;;;;;;;;;15.20;99.90;;;;;;5034875;28;20015;-71
2022/08/21 03:56:16;;;;;;;;;;;15.20;99.90;;;;;;5051244;28;19931;-72
2022/08/21 03:58:44;;;;;;;;;;;15.20;99.90;;;;;;5051559;28;20401;-71
2022/08/21 04:01:16;;;;;;;;;;;15.20;99.90;;;;;;5034498;28;19921;-72
2022/08/21 04:03:47;;;;;;;;;;;15.20;99.90;;;;;;5051402;28;20374;-71
2022/08/21 04:06:19;;;;;;;;;;;15.20;99.90;;;;;;5033239;28;19947;-72
2022/08/21 04:08:51;;;;;;;;;;;15.10;99.90;;;;;;5033463;28;19920;-72
2022/08/21 04:11:22;;;;;;;;;;;15.00;99.90;;;;;;5051288;28;20302;-71
2022/08/21 04:13:54;;;;;;;;;;;15.00;99.90;;;;;;5050419;28;19920;-72
2022/08/21 04:16:25;;;;;;;;;;;14.90;99.90;;;;;;5038787;28;19924;-72
2022/08/21 04:18:57;;;;;;;;;;;14.90;99.90;;;;;;5051197;28;19924;-71
2022/08/21 04:21:29;;;;;;;;;;;14.90;99.90;;;;;;5033064;28;20011;-71
2022/08/21 04:24:01;;;;;;;;;;;14.90;99.90;;;;;;5033267;28;19920;-70
2022/08/21 04:26:34;;;;;;;;;;;14.90;99.90;;;;;;5033139;28;20393;-71
2022/08/21 04:29:06;;;;;;;;;;;14.80;99.90;;;;;;5051321;28;19947;-71
2022/08/21 04:31:38;;;;;;;;;;;14.70;99.90;;;;;;5033406;28;19921;-71
2022/08/21 04:34:09;;;;;;;;;;;14.70;99.90;;;;;;5034036;28;19924;-71
2022/08/21 04:36:41;;;;;;;;;;;14.70;99.90;;;;;;5033541;28;20298;-71
2022/08/21 04:39:12;;;;;;;;;;;14.70;99.90;;;;;;5047574;28;19921;-71
2022/08/21 04:41:44;;;;;;;;;;;14.70;99.90;;;;;;5019075;28;20390;-70
2022/08/21 04:44:16;;;;;;;;;;;14.70;99.90;;;;;;5021241;28;19932;-71
2022/08/21 04:46:42;;;;;;;;;;;14.80;99.90;;;;;;5055427;28;19921;-71
2022/08/21 04:49:14;;;;;;;;;;;14.80;99.90;;;;;;5037073;28;20387;-72
2022/08/21 04:51:46;;;;;;;;;;;14.80;99.90;;;;;;5051670;28;20295;-71
2022/08/21 04:54:16;;;;;;;;;;;14.80;99.90;;;;;;5036779;28;19921;-71
2022/08/21 04:56:51;;;;;;;;;;;14.90;99.90;;;;;;5055175;28;19931;-72
2022/08/21 04:59:26;;;;;;;;;;;14.90;99.90;;;;;;5055092;28;19924;-71
2022/08/21 05:01:57;;;;;;;;;;;14.90;99.90;;;;;;5054826;28;19927;-72
2022/08/21 05:04:26;;;;;;;;;;;14.90;99.90;;;;;;5036461;28;19924;-71
2022/08/21 05:06:59;;;;;;;;;;;14.90;99.90;;;;;;5038036;28;19927;-71
2022/08/21 05:09:31;;;;;;;;;;;14.90;99.90;;;;;;5051889;28;20011;-72
2022/08/21 05:12:04;;;;;;;;;;;14.90;99.90;;;;;;5037751;28;19975;-71
2022/08/21 05:14:35;;;;;;;;;;;14.90;99.90;;;;;;5050237;28;20288;-71
2022/08/21 05:17:07;;;;;;;;;;;14.90;99.90;;;;;;5036196;28;20300;-71
2022/08/21 05:19:39;;;;;;;;;;;15.00;99.90;;;;;;5050913;28;19921;-71
2022/08/21 05:22:11;;;;;;;;;;;15.00;99.90;;;;;;5054436;28;19927;-71
2022/08/21 05:24:42;;;;;;;;;;;15.00;99.90;;;;;;5054089;28;19921;-72
2022/08/21 05:27:14;;;;;;;;;;;15.00;99.90;;;;;;5054422;28;20343;-71
2022/08/21 05:29:46;;;;;;;;;;;15.00;99.90;;;;;;5054506;28;20379;-70
2022/08/21 05:32:17;;;;;;;;;;;15.10;99.90;;;;;;5031394;28;19944;-71
2022/08/21 05:34:49;;;;;;;;;;;15.10;99.90;;;;;;5054140;28;19943;-71
2022/08/21 05:37:21;;;;;;;;;;;15.10;99.90;;;;;;5033805;28;19921;-71
2022/08/21 05:39:52;;;;;;;;;;;15.20;99.90;;;;;;5054212;28;19932;-70
2022/08/21 05:42:24;;;;;;;;;;;15.30;99.90;;;;;;5054069;28;19925;-72
2022/08/21 05:44:56;;;;;;;;;;;15.40;99.90;;;;;;5035877;28;19925;-72
2022/08/21 05:47:27;;;;;;;;;;;15.40;99.90;;;;;;5036971;28;20407;-72
2022/08/21 05:49:59;;;;;;;;;;;15.50;99.90;;;;;;5047713;28;20282;-70
2022/08/21 05:52:26;;;;;;;;;;;15.60;99.90;;;;;;5036048;28;20386;-71
2022/08/21 05:54:57;;;;;;;;;;;15.60;99.90;;;;;;5053036;28;19931;-71
2022/08/21 05:57:29;;;;;;;;;;;15.60;99.90;;;;;;5054017;28;19928;-71
2022/08/21 06:00:01;;;;;;;;;;;15.70;99.90;;;;;;5053728;28;19920;-71
2022/08/21 06:02:39;;;;;;;;;;;15.80;99.90;;;;;;5051273;28;19920;-70
2022/08/21 06:05:10;;;;;;;;;;;15.90;99.90;;;;;;5053143;28;20371;-71
2022/08/21 06:07:42;;;;;;;;;;;16.10;99.90;;;;;;5019986;28;19924;-72
2022/08/21 06:10:14;;;;;;;;;;;16.10;99.90;;;;;;5036547;28;20251;-71
2022/08/21 06:12:45;;;;;;;;;;;16.20;99.90;;;;;;5050088;28;19924;-71
2022/08/21 06:15:17;;;;;;;;;;;16.30;99.90;;;;;;5053123;28;20378;-72
2022/08/21 06:17:44;;;;;;;;;;;16.30;99.90;;;;;;5034905;28;19931;-72
2022/08/21 06:20:15;;;;;;;;;;;16.40;99.90;;;;;;5053358;28;19927;-71
2022/08/21 06:22:47;;;;;;;;;;;16.40;99.90;;;;;;5036129;28;19974;-72
2022/08/21 06:25:19;;;;;;;;;;;16.50;99.90;;;;;;5049639;28;19959;-72
2022/08/21 06:27:51;;;;;;;;;;;16.50;99.90;;;;;;5035416;28;19943;-71
2022/08/21 06:30:23;;;;;;;;;;;16.60;99.90;;;;;;5028900;28;20015;-71
2022/08/21 06:32:54;;;;;;;;;;;16.70;99.90;;;;;;5052979;28;19931;-71
2022/08/21 06:35:21;;;;;;;;;;;16.70;99.90;;;;;;5034779;28;19921;-71
2022/08/21 06:37:47;;;;;;;;;;;16.80;99.90;;;;;;5052872;28;19921;-72
2022/08/21 06:40:19;;;;;;;;;;;16.90;99.90;;;;;;5035975;28;20535;-72
2022/08/21 06:42:51;;;;;;;;;;;16.90;99.90;;;;;;5052856;28;19925;-72
2022/08/21 06:45:22;;;;;;;;;;;17.00;99.90;;;;;;5034746;28;19927;-72
2022/08/21 06:47:49;;;;;;;;;;;17.00;99.90;;;;;;5052801;28;20542;-72
2022/08/21 06:50:21;;;;;;;;;;;17.10;99.90;;;;;;5035802;28;19956;-72
2022/08/21 06:53:09;;;;;;;;;;;17.10;99.90;;;;;;5043518;28;19968;-72
2022/08/21 06:55:42;;;;;;;;;;;17.10;99.90;;;;;;5050146;28;20348;-71
2022/08/21 06:58:13;;;;;;;;;;;17.10;99.90;;;;;;5035863;28;20306;-72
2022/08/21 07:00:42;;;;;;;;;;;17.20;99.90;;;;;;5034962;28;19925;-72
2022/08/21 07:03:17;;;;;;;;;;;17.20;99.90;;;;;;5035447;28;19932;-72
2022/08/21 07:05:50;;;;;;;;;;;17.30;99.90;;;;;;5048049;28;20293;-72
2022/08/21 07:08:21;;;;;;;;;;;17.30;99.90;;;;;;5052644;28;19924;-71
2022/08/21 07:10:54;;;;;;;;;;;17.30;99.90;;;;;;5031769;28;19925;-72
2022/08/21 07:13:21;;;;;;;;;;;17.40;99.90;;;;;;5051664;28;20404;-72
2022/08/21 07:15:48;;;;;;;;;;;17.40;99.90;;;;;;5051800;28;20397;-71
2022/08/21 07:18:19;;;;;;;;;;;17.50;99.90;;;;;;5048220;28;19921;-70
2022/08/21 07:20:51;;;;;;;;;;;17.60;99.90;;;;;;5034275;28;19920;-72
2022/08/21 07:23:26;;;;;;;;;;;17.70;99.90;;;;;;5035278;28;20027;-72
2022/08/21 07:25:59;;;;;;;;;;;17.70;99.90;;;;;;5034654;28;19931;-71
2022/08/21 07:28:26;;;;;;;;;;;17.80;99.90;;;;;;5052069;28;19929;-72
2022/08/21 07:30:59;;;;;;;;;;;17.80;99.90;;;;;;5031883;28;20405;-71
2022/08/21 07:33:33;;;;;;;;;;;17.80;99.90;;;;;;5033996;28;20384;-71
2022/08/21 07:36:05;;;;;;;;;;;17.90;99.90;;;;;;5028739;28;19921;-72
2022/08/21 07:38:37;;;;;;;;;;;17.90;99.90;;;;;;5034922;28;19943;-72
2022/08/21 07:41:19;;;;;;;;;;;18.00;99.90;;;;;;5031251;28;19966;-72
2022/08/21 07:43:51;;;;;;;;;;;18.10;99.90;;;;;;5034580;28;19999;-72
2022/08/21 07:46:24;;;;;;;;;;;18.10;99.90;;;;;;5034204;28;19935;-72
2022/08/21 07:48:55;;;;;;;;;;;18.20;99.90;;;;;;5051626;28;19963;-71
2022/08/21 07:51:28;;;;;;;;;;;18.30;99.90;;;;;;5051464;28;19924;-72
2022/08/21 07:54:00;;;;;;;;;;;18.40;99.90;;;;;;5051619;28;19925;-72
2022/08/21 07:56:32;;;;;;;;;;;18.50;99.90;;;;;;5048110;28;19921;-71
2022/08/21 07:59:03;;;;;;;;;;;18.60;99.90;;;;;;5033616;28;19942;-72
2022/08/21 08:01:30;;;;;;;;;;;18.60;99.90;;;;;;5051304;28;19921;-72
2022/08/21 08:04:02;;;;;;;;;;;18.70;99.90;;;;;;5034384;28;20294;-71
2022/08/21 08:06:33;;;;;;;;;;;18.70;99.90;;;;;;5034363;28;19925;-71
2022/08/21 08:09:05;;;;;;;;;;;18.80;99.90;;;;;;5047972;28;19927;-71
2022/08/21 08:11:38;;;;;;;;;;;18.80;99.90;;;;;;5034110;28;19932;-72
2022/08/21 08:14:05;;;;;;;;;;;18.90;99.90;;;;;;5040952;28;19967;-71
2022/08/21 08:16:36;;;;;;;;;;;19.00;99.90;;;;;;5014831;28;19924;-71
2022/08/21 08:19:08;;;;;;;;;;;19.10;99.90;;;;;;5017468;28;19924;-71
2022/08/21 08:21:40;;;;;;;;;;;19.20;99.90;;;;;;5027808;28;20375;-72
2022/08/21 08:24:11;;;;;;;;;;;19.30;99.90;;;;;;5050734;28;19927;-71
2022/08/21 08:26:43;;;;;;;;;;;19.30;99.90;;;;;;5013892;28;19924;-72
2022/08/21 08:29:10;;;;;;;;;;;19.40;99.90;;;;;;5051019;28;20357;-71
2022/08/21 08:31:41;;;;;;;;;;;19.50;99.90;;;;;;5050851;28;19920;-71
2022/08/21 08:34:13;;;;;;;;;;;19.60;99.90;;;;;;5047259;28;19924;-71
2022/08/21 08:36:44;;;;;;;;;;;19.70;99.90;;;;;;5051012;28;19927;-71
2022/08/21 08:39:16;;;;;;;;;;;19.70;99.90;;;;;;5047092;28;20268;-71
2022/08/21 08:41:50;;;;;;;;;;;19.80;99.90;;;;;;5050922;28;19927;-71
2022/08/21 08:44:22;;;;;;;;;;;19.90;99.90;;;;;;5050349;28;19920;-71
2022/08/21 08:46:55;;;;;;;;;;;20.00;99.90;;;;;;5050866;28;19920;-71
2022/08/21 08:49:30;;;;;;;;;;;20.00;99.90;;;;;;5032866;28;19921;-71
2022/08/21 08:52:05;;;;;;;;;;;20.10;99.90;;;;;;5050736;28;20276;-72
2022/08/21 08:54:37;;;;;;;;;;;20.20;99.90;;;;;;5050506;28;19978;-71
2022/08/21 08:57:10;;;;;;;;;;;20.30;99.90;;;;;;5033764;28;19920;-72
2022/08/21 08:59:43;;;;;;;;;;;20.40;99.90;;;;;;5050700;28;19931;-71
2022/08/21 09:02:16;;;;;;;;;;;20.40;99.90;;;;;;5032647;28;19931;-70
2022/08/21 09:04:45;;;;;;;;;;;20.60;99.90;;;;;;5032371;28;19921;-71
2022/08/21 09:07:22;;;;;;;;;;;20.70;99.90;;;;;;5050599;28;19925;-71
2022/08/21 09:10:03;;;;;;;;;;;20.80;99.90;;;;;;5050636;28;19921;-71
2022/08/21 09:12:54;;;;;;;;;;;20.80;99.90;;;;;;5033521;28;19921;-71
2022/08/21 09:15:35;;;;;;;;;;;20.80;99.90;;;;;;5023498;28;19947;-72
2022/08/21 09:18:07;;;;;;;;;;;20.90;99.90;;;;;;5029324;28;19971;-71
2022/08/21 09:20:57;;;;;;;;;;;20.90;99.90;;;;;;5050550;28;19971;-71
2022/08/21 09:23:43;;;;;;;;;;;21.00;99.90;;;;;;5050786;23;19948;-90
2022/08/21 09:26:14;;;;;;;;;;;21.00;99.90;;;;;;5002030;28;19921;-89
2022/08/21 09:28:42;;;;;;;;;;;21.20;99.90;;;;;;5015572;28;19970;-89
2022/08/21 09:31:14;;;;;;;;;;;21.20;99.90;;;;;;5005676;28;19922;-90
2022/08/21 09:33:40;;;;;;;;;;;21.30;99.90;;;;;;4981950;28;19925;-90
2022/08/21 09:36:22;;;;;;;;;;;21.40;99.90;;;;;;4997973;28;19921;-91
2022/08/21 09:38:51;;;;;;;;;;;21.40;99.90;;;;;;5049814;23;19921;-73
2022/08/21 09:41:31;;;;;;;;;;;21.50;99.90;;;;;;5052404;28;19926;-74
2022/08/21 09:43:58;;;;;;;;;;;21.60;99.90;;;;;;5033084;28;19927;-74
2022/08/21 09:46:25;;;;;;;;;;;21.70;99.90;;;;;;5033026;28;19929;-73
2022/08/21 09:48:58;;;;;;;;;;;21.70;99.90;;;;;;5024041;28;20294;-74
2022/08/21 09:51:34;;;;;;;;;;;21.80;99.90;;;;;;5032313;28;20417;-74
2022/08/21 09:54:07;;;;;;;;;;;21.90;99.90;;;;;;5034819;28;19920;-72
2022/08/21 09:59:49;;;;;;;;;;;22.10;99.90;;;;;;5042526;28;19931;-72
2022/08/21 10:02:29;;;;;;;;;;;22.10;99.90;;;;;;5032904;28;19921;-74
2022/08/21 10:05:15;;;;;;;;;;;22.20;99.90;;;;;;5016729;28;19925;-74
2022/08/21 10:07:46;;;;;;;;;;;22.20;99.90;;;;;;5028696;28;19925;-73
2022/08/21 10:10:20;;;;;;;;;;;22.30;99.90;;;;;;5009954;28;20299;-73
2022/08/21 10:13:10;;;;;;;;;;;22.40;99.90;;;;;;5021875;28;19925;-70
2022/08/21 10:15:47;;;;;;;;;;;22.40;99.90;;;;;;5010540;28;19959;-74
2022/08/21 10:18:24;;;;;;;;;;;22.40;99.90;;;;;;5041710;28;19921;-73
2022/08/21 10:20:54;;;;;;;;;;;22.40;99.90;;;;;;5027845;28;19925;-74
2022/08/21 10:23:35;;;;;;;;;;;22.40;99.90;;;;;;5018173;28;19921;-73
2022/08/21 10:26:09;;;;;;;;;;;22.40;99.90;;;;;;5025798;28;19928;-73
2022/08/21 10:28:45;;;;;;;;;;;22.60;99.90;;;;;;5030222;28;20383;-73
2022/08/21 10:31:21;;;;;;;;;;;22.70;99.90;;;;;;5041435;28;19925;-73
2022/08/21 10:33:54;;;;;;;;;;;22.80;99.90;;;;;;5013859;28;19932;-73
2022/08/21 10:36:26;;;;;;;;;;;22.90;99.90;;;;;;5041825;28;20294;-73
2022/08/21 10:39:05;;;;;;;;;;;22.80;99.90;;;;;;5023962;28;19921;-73
2022/08/21 10:41:48;;;;;;;;;;;22.80;99.90;;;;;;5032638;28;19925;-73
2022/08/21 10:44:29;;;;;;;;;;;22.90;99.90;;;;;;5043412;28;20275;-73
2022/08/21 10:47:08;;;;;;;;;;;23.00;99.90;;;;;;5048352;28;19966;-72
2022/08/21 10:49:43;;;;;;;;;;;23.10;99.90;;;;;;5035218;28;20341;-73
2022/08/21 10:52:35;;;;;;;;;;;23.20;99.90;;;;;;5016187;28;19936;-73
2022/08/21 10:55:12;;;;;;;;;;;23.30;99.90;;;;;;5024668;28;20442;-72
2022/08/21 10:57:56;;;;;;;;;;;23.40;99.90;;;;;;5042070;28;19920;-73
2022/08/21 11:00:43;;;;;;;;;;;23.50;99.90;;;;;;5041329;28;19925;-73
2022/08/21 11:03:24;;;;;;;;;;;23.60;99.90;;;;;;5037401;28;19924;-73
2022/08/21 11:05:59;;;;;;;;;;;23.70;99.90;;;;;;5051794;28;20027;-73
2022/08/21 11:08:30;;;;;;;;;;;23.80;99.90;;;;;;5032211;28;19927;-73
2022/08/21 11:11:08;;;;;;;;;;;23.90;99.90;;;;;;5013660;28;19924;-73
2022/08/21 11:13:42;;;;;;;;;;;23.90;99.90;;;;;;5010391;28;20303;-73
2022/08/21 11:16:17;;;;;;;;;;;23.90;99.90;;;;;;5038893;28;19943;-73
2022/08/21 11:18:52;;;;;;;;;;;23.90;99.90;;;;;;5005923;28;19928;-74
2022/08/21 11:21:29;;;;;;;;;;;23.90;99.90;;;;;;5047155;28;19943;-73
2022/08/21 11:24:16;;;;;;;;;;;24.00;99.90;;;;;;5040462;28;20314;-73
2022/08/21 11:26:46;;;;;;;;;;;24.10;99.90;;;;;;5034121;28;19925;-74
2022/08/21 11:29:24;;;;;;;;;;;24.20;99.90;;;;;;5037685;28;19943;-73
2022/08/21 11:32:00;;;;;;;;;;;24.30;99.90;;;;;;5032518;28;19966;-72
2022/08/21 11:34:41;;;;;;;;;;;24.30;99.80;;;;;;5042231;28;19928;-73
2022/08/21 11:37:26;;;;;;;;;;;24.50;99.90;;;;;;5015450;28;19924;-73
2022/08/21 11:40:18;;;;;;;;;;;24.50;99.30;;;;;;5037293;28;19921;-73
2022/08/21 11:42:55;;;;;;;;;;;24.50;99.30;;;;;;5011251;28;19929;-72
2022/08/21 11:45:31;;;;;;;;;;;24.60;98.10;;;;;;5032265;28;20383;-73
2022/08/21 11:48:06;;;;;;;;;;;24.50;96.60;;;;;;5031620;28;19921;-73
2022/08/21 11:50:40;;;;;;;;;;;24.60;95.00;;;;;;5033575;28;19925;-72
2022/08/21 11:53:15;;;;;;;;;;;24.50;95.80;;;;;;5030079;28;19927;-73
2022/08/21 11:55:50;;;;;;;;;;;24.70;95.80;;;;;;5031587;28;19920;-73
2022/08/21 11:58:40;;;;;;;;;;;24.70;95.10;;;;;;5030383;28;19925;-74
2022/08/21 12:01:32;;;;;;;;;;;24.60;94.60;;;;;;5017430;28;19925;-73
2022/08/21 12:04:06;;;;;;;;;;;24.70;94.40;;;;;;5011728;28;19928;-72
2022/08/21 12:06:35;;;;;;;;;;;24.70;92.40;;;;;;5027513;28;19925;-74
2022/08/21 12:09:08;;;;;;;;;;;24.80;93.80;;;;;;5012046;28;19928;-73
2022/08/21 12:11:47;;;;;;;;;;;24.90;95.00;;;;;;5031307;28;19925;-73
2022/08/21 12:14:19;;;;;;;;;;;25.10;93.70;;;;;;5030578;28;19921;-74
2022/08/21 12:16:51;;;;;;;;;;;25.00;92.90;;;;;;5029984;28;19944;-73
2022/08/21 12:19:22;;;;;;;;;;;25.00;93.70;;;;;;5027020;28;20370;-73
2022/08/21 12:21:59;;;;;;;;;;;25.00;90.70;;;;;;5012851;28;19935;-74
2022/08/21 12:24:39;;;;;;;;;;;25.00;91.90;;;;;;5017249;28;19983;-73
2022/08/21 12:27:19;;;;;;;;;;;25.10;90.30;;;;;;5030287;28;19924;-74
2022/08/21 12:29:53;;;;;;;;;;;25.20;90.80;;;;;;5019696;28;19931;-74
2022/08/21 12:32:27;;;;;;;;;;;25.20;91.90;;;;;;5019632;28;20338;-74
2022/08/21 12:35:07;;;;;;;;;;;25.30;93.60;;;;;;5031536;28;19921;-74
2022/08/21 12:37:40;;;;;;;;;;;25.50;91.50;;;;;;5026290;28;19921;-73
2022/08/21 12:40:29;;;;;;;;;;;25.40;90.50;;;;;;5022105;28;19975;-73
2022/08/21 12:43:02;;;;;;;;;;;25.50;91.70;;;;;;5032843;28;19928;-73
2022/08/21 12:45:39;;;;;;;;;;;25.50;91.40;;;;;;5001551;28;20383;-74
2022/08/21 12:48:22;;;;;;;;;;;25.60;92.00;;;;;;5028332;28;19925;-74
2022/08/21 12:51:00;;;;;;;;;;;25.60;91.30;;;;;;5037469;28;19959;-73
2022/08/21 12:53:35;;;;;;;;;;;25.60;91.30;;;;;;5037975;28;19921;-74
2022/08/21 12:56:14;;;;;;;;;;;25.70;93.10;;;;;;5025198;28;19921;-74
2022/08/21 12:58:49;;;;;;;;;;;25.80;91.80;;;;;;5037576;28;20318;-73
2022/08/21 13:01:24;;;;;;;;;;;25.60;89.50;;;;;;5024091;28;20319;-73
2022/08/21 13:03:58;;;;;;;;;;;25.50;89.90;;;;;;5020302;28;19925;-74
2022/08/21 13:06:27;;;;;;;;;;;25.50;89.00;;;;;;5022421;28;19944;-73
2022/08/21 13:09:04;;;;;;;;;;;25.40;86.90;;;;;;5025214;28;19921;-73
2022/08/21 13:11:36;;;;;;;;;;;25.40;84.70;;;;;;5043104;28;19951;-73
2022/08/21 13:14:14;;;;;;;;;;;25.40;84.10;;;;;;5033526;28;19927;-73
2022/08/21 13:16:46;;;;;;;;;;;25.50;83.60;;;;;;5028217;28;20302;-73
2022/08/21 13:19:19;;;;;;;;;;;25.50;86.70;;;;;;5049047;28;19926;-73
2022/08/21 13:21:52;;;;;;;;;;;25.70;86.90;;;;;;5024557;28;19921;-73
2022/08/21 13:24:29;;;;;;;;;;;25.70;89.60;;;;;;5027705;28;19933;-74
2022/08/21 13:26:56;;;;;;;;;;;25.90;86.10;;;;;;5035067;28;19929;-73
2022/08/21 13:29:27;;;;;;;;;;;26.00;89.20;;;;;;5050830;28;20394;-73
2022/08/21 13:32:01;;;;;;;;;;;26.10;84.50;;;;;;5041638;28;19964;-73
2022/08/21 13:34:36;;;;;;;;;;;26.20;85.80;;;;;;5034792;28;19921;-74
2022/08/21 13:37:10;;;;;;;;;;;26.20;84.70;;;;;;5033357;28;19925;-73
2022/08/21 13:39:48;;;;;;;;;;;26.20;82.10;;;;;;5021979;28;19925;-73
2022/08/21 13:42:19;;;;;;;;;;;26.30;82.30;;;;;;5037186;28;20031;-74
2022/08/21 13:44:52;;;;;;;;;;;26.30;84.00;;;;;;5017837;28;19921;-73
2022/08/21 13:47:23;;;;;;;;;;;26.30;81.50;;;;;;5031991;28;19955;-73
2022/08/21 13:49:55;;;;;;;;;;;26.20;78.80;;;;;;5038901;28;19920;-74
2022/08/21 13:52:27;;;;;;;;;;;26.20;79.20;;;;;;5032153;28;19925;-73
2022/08/21 13:55:12;;;;;;;;;;;26.30;80.90;;;;;;5034085;28;19927;-73
2022/08/21 13:57:43;;;;;;;;;;;26.40;79.30;;;;;;5044467;28;19928;-73
2022/08/21 14:00:18;;;;;;;;;;;26.40;79.20;;;;;;5048006;28;19927;-73
2022/08/21 14:02:52;;;;;;;;;;;26.60;79.50;;;;;;5046753;28;19928;-73
2022/08/21 14:05:28;;;;;;;;;;;26.80;78.10;;;;;;5016990;28;19921;-73
2022/08/21 14:08:03;;;;;;;;;;;26.90;80.20;;;;;;5024642;28;19920;-73
2022/08/21 14:10:36;;;;;;;;;;;27.10;78.00;;;;;;5031660;28;19959;-73
2022/08/21 14:13:17;;;;;;;;;;;27.20;78.30;;;;;;5033765;28;19929;-73
2022/08/21 14:15:54;;;;;;;;;;;27.40;78.80;;;;;;5043118;28;19921;-73
2022/08/21 14:18:26;;;;;;;;;;;27.40;76.80;;;;;;5034432;28;19924;-74
2022/08/21 14:21:06;;;;;;;;;;;27.40;76.60;;;;;;5030498;28;19921;-72
2022/08/21 14:23:38;;;;;;;;;;;27.30;75.00;;;;;;5036164;28;19920;-74
2022/08/21 14:26:09;;;;;;;;;;;27.30;76.00;;;;;;5033077;28;19920;-73
2022/08/21 14:28:41;;;;;;;;;;;27.40;78.00;;;;;;5049657;28;20363;-74
2022/08/21 14:31:14;;;;;;;;;;;27.50;75.50;;;;;;5035228;28;19925;-73
2022/08/21 14:33:46;;;;;;;;;;;27.70;74.10;;;;;;5033593;28;20276;-73
2022/08/21 14:36:18;;;;;;;;;;;27.80;73.70;;;;;;5033085;28;20313;-74
2022/08/21 14:38:49;;;;;;;;;;;28.20;76.10;;;;;;5007077;28;20387;-74
2022/08/21 14:41:23;;;;;;;;;;;28.40;73.60;;;;;;5044964;28;19925;-73
2022/08/21 14:43:50;;;;;;;;;;;28.60;71.40;;;;;;5036968;28;19921;-76
2022/08/21 14:46:23;;;;;;;;;;;28.60;69.10;;;;;;5051455;28;19935;-75
2022/08/21 14:48:55;;;;;;;;;;;28.60;72.40;;;;;;5044129;28;19920;-73